Time;durP1;ratioP1;P1;durP2;ratioP2;P2;SDS_P1;SDS_P2;PMS_P1;PMS_P2;Temp;Humidity;BMP_temperature;BMP_pressure;BME280_temperature;BME280_humidity;BME280_pressure;Samples;Min_cycle;Max_cycle;Signal;HPM_P1;HPM_P2
2021/12/08 00:01:40;;;;;;;1.25;0.80;;;14.10;99.90;;;;;;4985227;28;20034;-74
2021/12/08 00:04:05;;;;;;;1.65;0.93;;;14.10;99.90;;;;;;4979181;28;20042;-75
2021/12/08 00:06:31;;;;;;;1.73;1.02;;;14.10;99.90;;;;;;5009545;28;20038;-72
2021/12/08 00:14:34;;;;;;;1.08;0.80;;;13.80;99.90;;;;;;4989365;28;20041;-76
2021/12/08 00:17:01;;;;;;;1.40;0.90;;;13.80;99.90;;;;;;4971231;28;20109;-73
2021/12/08 00:19:28;;;;;;;1.67;0.95;;;13.70;99.90;;;;;;4996724;28;20030;-76
2021/12/08 00:21:55;;;;;;;1.48;0.85;;;13.70;99.90;;;;;;4980502;28;20493;-72
2021/12/08 00:24:21;;;;;;;1.13;0.80;;;13.80;99.90;;;;;;5015625;28;20106;-73
2021/12/08 00:26:47;;;;;;;1.50;0.90;;;13.80;99.90;;;;;;5006963;28;20469;-74
2021/12/08 00:29:14;;;;;;;2.97;0.80;;;13.90;99.90;;;;;;5015309;28;20044;-75
2021/12/08 00:31:45;;;;;;;2.53;0.90;;;14.00;99.90;;;;;;5000836;28;20136;-73
2021/12/08 00:34:12;;;;;;;2.75;1.00;;;14.00;99.90;;;;;;4993072;28;20068;-75
2021/12/08 00:36:47;;;;;;;2.40;0.93;;;14.00;99.90;;;;;;4993203;28;20505;-73
2021/12/08 00:39:15;;;;;;;0.88;0.70;;;14.00;99.90;;;;;;5006775;28;20041;-77
2021/12/08 00:41:42;;;;;;;1.58;0.90;;;14.00;99.90;;;;;;5010926;28;24254;-72
2021/12/08 00:44:08;;;;;;;1.33;0.75;;;14.00;99.90;;;;;;4996186;28;20054;-75
2021/12/08 00:46:36;;;;;;;1.50;0.80;;;13.90;99.90;;;;;;4988015;28;20046;-73
2021/12/08 00:49:06;;;;;;;0.70;0.70;;;13.90;99.90;;;;;;4981786;28;20050;-77
2021/12/08 00:51:33;;;;;;;1.73;0.88;;;13.90;99.90;;;;;;4990672;28;20038;-74
2021/12/08 00:54:00;;;;;;;1.23;0.80;;;13.90;99.90;;;;;;5000810;28;20576;-72
2021/12/08 00:56:26;;;;;;;1.08;0.68;;;13.90;99.90;;;;;;4988340;28;20042;-73
2021/12/08 00:58:53;;;;;;;2.60;1.02;;;13.90;99.90;;;;;;4988587;28;20073;-73
2021/12/08 01:01:22;;;;;;;1.13;0.75;;;13.90;99.90;;;;;;5006035;28;20053;-76
2021/12/08 01:03:50;;;;;;;1.58;0.70;;;13.80;99.90;;;;;;5010148;28;20114;-73
2021/12/08 01:06:17;;;;;;;1.30;0.90;;;13.80;99.90;;;;;;5009772;28;20033;-73
2021/12/08 01:08:44;;;;;;;2.25;1.00;;;13.80;99.90;;;;;;4994527;28;20044;-73
2021/12/08 01:11:14;;;;;;;2.78;1.00;;;13.70;99.90;;;;;;4991896;28;20076;-73
2021/12/08 01:13:41;;;;;;;1.30;0.93;;;13.60;99.90;;;;;;5008427;28;20080;-73
2021/12/08 01:16:07;;;;;;;1.65;0.88;;;13.60;99.90;;;;;;5004571;28;20049;-75
2021/12/08 01:18:33;;;;;;;6.43;3.70;;;13.50;99.90;;;;;;5001863;28;20041;-73
2021/12/08 01:21:03;;;;;;;5.93;3.50;;;13.30;99.90;;;;;;5010898;28;20572;-74
2021/12/08 01:23:30;;;;;;;6.32;3.40;;;13.10;99.90;;;;;;5005648;28;20132;-73
2021/12/08 01:25:55;;;;;;;9.38;4.20;;;12.90;99.90;;;;;;4999317;28;20431;-78
2021/12/08 01:28:23;;;;;;;7.00;3.53;;;12.70;99.90;;;;;;5010491;28;20042;-74
2021/12/08 01:30:54;;;;;;;7.43;3.75;;;12.60;99.90;;;;;;4998317;28;20494;-76
2021/12/08 01:33:23;;;;;;;13.43;4.38;;;12.50;99.90;;;;;;4990553;28;20034;-74
2021/12/08 01:35:50;;;;;;;9.25;3.75;;;12.30;99.90;;;;;;4984169;28;20038;-73
2021/12/08 01:38:16;;;;;;;6.93;3.53;;;12.20;99.90;;;;;;4995926;28;20042;-73
2021/12/08 01:40:42;;;;;;;6.28;3.50;;;12.00;99.90;;;;;;5006724;28;20035;-78
2021/12/08 01:43:23;;;;;;;9.23;3.95;;;12.00;99.90;;;;;;5007587;28;20056;-75
2021/12/08 01:45:59;;;;;;;7.28;3.85;;;11.90;99.90;;;;;;4991142;28;20045;-79
2021/12/08 01:48:32;;;;;;;7.55;3.97;;;11.90;99.90;;;;;;4972415;28;20105;-74
2021/12/08 01:51:04;;;;;;;8.48;3.88;;;11.80;99.90;;;;;;5010619;28;20125;-74
2021/12/08 01:53:31;;;;;;;7.30;3.83;;;11.80;99.90;;;;;;5007464;28;20495;-78
2021/12/08 01:55:57;;;;;;;6.25;3.45;;;11.70;99.90;;;;;;4992458;28;20259;-73
2021/12/08 01:58:24;;;;;;;4.80;2.88;;;11.70;99.90;;;;;;5005069;28;20046;-78
2021/12/08 02:01:10;;;;;;;3.75;2.20;;;11.80;99.90;;;;;;5009216;28;20037;-72
2021/12/08 02:03:38;;;;;;;2.90;1.80;;;12.00;99.90;;;;;;4983547;28;20190;-73
2021/12/08 02:06:07;;;;;;;3.92;2.00;;;12.10;99.90;;;;;;4985576;28;20062;-76
2021/12/08 02:08:35;;;;;;;2.80;1.70;;;12.40;99.90;;;;;;5005111;28;20037;-75
2021/12/08 02:11:03;;;;;;;3.15;1.65;;;12.40;99.90;;;;;;5004121;28;20505;-76
2021/12/08 02:13:36;;;;;;;3.42;1.50;;;12.50;99.90;;;;;;5002113;28;20412;-74
2021/12/08 02:16:04;;;;;;;3.72;1.60;;;12.60;99.90;;;;;;5015252;28;20100;-75
2021/12/08 02:18:30;;;;;;;5.20;2.08;;;12.70;99.90;;;;;;4995509;28;20034;-74
2021/12/08 02:20:58;;;;;;;2.85;1.60;;;12.70;99.90;;;;;;4977857;28;20043;-73
2021/12/08 02:23:25;;;;;;;3.28;1.67;;;12.70;99.90;;;;;;4996908;28;20083;-75
2021/12/08 02:25:51;;;;;;;4.38;1.80;;;12.80;99.90;;;;;;5016167;28;20046;-75
2021/12/08 02:28:18;;;;;;;8.45;1.73;;;12.80;99.90;;;;;;4999382;28;20041;-78
2021/12/08 02:30:50;;;;;;;3.53;1.67;;;13.00;99.90;;;;;;5000729;28;20038;-73
2021/12/08 02:47:16;;;;;;;4.07;1.30;;;13.00;99.90;;;;;;5010450;28;20069;-75
2021/12/08 02:49:42;;;;;;;1.90;1.15;;;13.20;99.90;;;;;;4995210;28;20458;-74
2021/12/08 02:52:11;;;;;;;2.47;1.42;;;13.30;99.90;;;;;;4990745;28;20052;-74
2021/12/08 02:54:44;;;;;;;1.70;1.35;;;13.20;99.90;;;;;;5010963;28;20088;-73
2021/12/08 02:57:12;;;;;;;2.30;1.38;;;13.20;99.90;;;;;;5009485;28;20034;-74
2021/12/08 02:59:40;;;;;;;2.13;1.27;;;13.20;99.90;;;;;;4986740;28;20034;-75
2021/12/08 03:02:09;;;;;;;2.50;1.50;;;13.30;99.90;;;;;;5007087;28;20022;-76
2021/12/08 03:04:37;;;;;;;2.95;1.08;;;13.30;99.90;;;;;;5006166;28;20038;-73
2021/12/08 03:07:04;;;;;;;2.05;1.10;;;13.20;99.90;;;;;;5007738;28;20042;-73
2021/12/08 03:09:31;;;;;;;1.98;1.00;;;13.10;99.90;;;;;;5012887;28;20107;-73
2021/12/08 03:11:59;;;;;;;1.85;1.10;;;13.10;99.90;;;;;;5014756;28;20046;-73
2021/12/08 03:14:26;;;;;;;1.25;0.82;;;13.20;99.90;;;;;;4989670;28;20662;-73
2021/12/08 03:16:58;;;;;;;1.27;0.80;;;13.20;99.90;;;;;;5006223;28;20125;-75
2021/12/08 03:19:26;;;;;;;1.23;0.85;;;13.40;99.90;;;;;;5011344;28;20037;-74
2021/12/08 03:21:53;;;;;;;2.58;1.05;;;13.30;99.90;;;;;;4999011;28;20056;-79
2021/12/08 03:24:26;;;;;;;1.40;1.00;;;13.30;99.90;;;;;;5009310;28;20037;-72
2021/12/08 03:29:51;;;;;;;1.88;0.90;;;13.40;99.90;;;;;;4995617;28;20286;-72
2021/12/08 03:32:36;;;;;;;1.20;0.90;;;13.40;99.90;;;;;;4984597;28;20431;-74
2021/12/08 03:35:07;;;;;;;2.60;1.00;;;13.50;99.90;;;;;;5001670;28;20450;-77
2021/12/08 03:37:37;;;;;;;1.33;0.80;;;13.40;99.90;;;;;;5003180;28;20030;-72
2021/12/08 03:40:33;;;;;;;1.58;0.68;;;13.40;99.90;;;;;;5008044;28;20096;-74
2021/12/08 03:43:00;;;;;;;1.15;0.70;;;13.50;99.90;;;;;;4984888;28;20156;-75
2021/12/08 03:45:33;;;;;;;1.55;0.68;;;13.50;99.90;;;;;;4999399;28;20042;-73
2021/12/08 03:48:04;;;;;;;1.25;0.70;;;13.50;99.90;;;;;;5007018;28;20128;-76
2021/12/08 03:50:33;;;;;;;1.10;0.68;;;13.50;99.90;;;;;;4998888;28;20042;-73
2021/12/08 03:53:00;;;;;;;2.95;0.70;;;13.40;99.90;;;;;;4993258;28;20038;-72
2021/12/08 03:55:27;;;;;;;2.70;0.70;;;13.30;99.90;;;;;;5000321;28;20112;-73
2021/12/08 03:57:53;;;;;;;1.77;0.60;;;13.20;99.90;;;;;;4988189;28;20050;-74
2021/12/08 04:00:22;;;;;;;1.75;0.82;;;13.10;99.90;;;;;;5010076;28;20121;-72
2021/12/08 04:02:50;;;;;;;1.92;0.77;;;13.10;99.90;;;;;;5011089;28;20045;-73
2021/12/08 04:05:19;;;;;;;1.25;0.70;;;13.10;99.90;;;;;;4997397;28;20501;-75
2021/12/08 04:07:52;;;;;;;1.08;0.57;;;13.10;99.90;;;;;;5011986;28;20050;-73
2021/12/08 04:10:20;;;;;;;1.77;0.52;;;13.10;99.90;;;;;;5011203;28;20069;-76
2021/12/08 04:12:50;;;;;;;0.70;0.50;;;13.20;99.90;;;;;;5010566;28;20045;-72
2021/12/08 04:15:18;;;;;;;0.40;0.30;;;13.20;99.90;;;;;;5014866;28;20061;-76
2021/12/08 04:17:49;;;;;;;0.50;0.50;;;13.20;99.90;;;;;;5013142;28;20037;-72
2021/12/08 04:20:22;;;;;;;2.03;0.70;;;13.20;99.90;;;;;;4991746;28;20089;-77
2021/12/08 04:22:51;;;;;;;;;;;13.10;99.90;;;;;;5009924;28;20042;-75
2021/12/08 04:25:29;;;;;;;1.27;0.50;;;13.20;99.90;;;;;;4976909;28;19918;-76
2021/12/08 04:27:58;;;;;;;2.25;0.40;;;13.10;99.90;;;;;;4989388;28;20037;-75
2021/12/08 04:30:35;;;;;;;1.45;0.50;;;13.10;99.90;;;;;;4996644;28;20500;-77
2021/12/08 04:33:02;;;;;;;1.38;0.50;;;13.10;99.90;;;;;;5004678;28;20126;-73
2021/12/08 04:35:29;;;;;;;1.00;0.40;;;13.00;99.90;;;;;;4980124;28;20029;-76
2021/12/08 04:38:00;;;;;;;1.42;0.50;;;13.00;99.90;;;;;;4991127;28;20080;-72
2021/12/08 04:43:45;;;;;;;1.98;0.50;;;13.00;99.90;;;;;;5005344;28;20037;-71
2021/12/08 05:10:16;;;;;;;1.33;0.50;;;12.80;99.90;;;;;;5008303;28;20136;-72
2021/12/08 05:12:46;;;;;;;2.45;0.40;;;12.60;99.90;;;;;;5001185;28;20058;-73
2021/12/08 05:15:20;;;;;;;0.28;0.28;;;12.60;99.90;;;;;;4993923;28;20042;-78
2021/12/08 05:17:56;;;;;;;0.50;0.40;;;12.40;99.90;;;;;;5011488;28;20067;-76
2021/12/08 05:20:33;;;;;;;1.17;0.40;;;12.50;99.90;;;;;;5012883;28;20098;-73
2021/12/08 05:23:08;;;;;;;0.80;0.30;;;12.60;99.90;;;;;;5009320;28;20056;-72
2021/12/08 05:25:40;;;;;;;0.80;0.47;;;12.60;99.90;;;;;;4990658;28;20118;-72
2021/12/08 05:28:11;;;;;;;0.90;0.40;;;12.60;99.90;;;;;;5004231;28;20049;-73
2021/12/08 05:30:44;;;;;;;0.77;0.35;;;12.40;99.90;;;;;;4966366;28;20070;-73
2021/12/08 05:33:11;;;;;;;0.40;0.30;;;12.40;99.90;;;;;;5004730;28;20120;-72
2021/12/08 05:35:40;;;;;;;1.55;0.60;;;12.30;99.90;;;;;;5001262;28;20435;-74
2021/12/08 05:38:06;;;;;;;1.00;0.40;;;12.20;99.90;;;;;;5010704;28;20100;-75
2021/12/08 05:40:38;;;;;;;0.32;0.30;;;12.40;99.90;;;;;;5006540;28;20036;-72
2021/12/08 05:43:07;;;;;;;0.57;0.30;;;12.40;99.90;;;;;;4999170;28;20053;-76
2021/12/08 05:45:35;;;;;;;1.83;0.50;;;12.40;99.90;;;;;;5008590;28;20072;-72
2021/12/08 05:48:02;;;;;;;1.00;0.40;;;12.50;99.90;;;;;;5007533;28;20453;-72
2021/12/08 05:50:34;;;;;;;2.55;0.68;;;12.50;99.90;;;;;;4985461;28;20826;-77
2021/12/08 05:53:03;;;;;;;1.35;0.50;;;12.50;99.90;;;;;;5007916;28;20156;-71
2021/12/08 05:55:31;;;;;;;1.52;0.70;;;12.40;99.90;;;;;;4993037;28;20041;-74
2021/12/08 05:57:58;;;;;;;0.85;0.47;;;12.30;99.90;;;;;;4991935;28;20042;-73
2021/12/08 06:00:27;;;;;;;0.82;0.40;;;12.30;99.90;;;;;;5010885;28;20093;-72
2021/12/08 06:02:56;;;;;;;2.20;0.80;;;12.30;99.90;;;;;;5009418;28;20033;-72
2021/12/08 06:05:31;;;;;;;1.23;0.60;;;12.30;99.90;;;;;;4999338;28;20364;-73
2021/12/08 06:07:58;;;;;;;2.67;0.68;;;12.30;99.90;;;;;;5005322;28;20492;-76
2021/12/08 06:10:34;;;;;;;1.38;0.60;;;12.30;99.90;;;;;;5007868;28;20060;-74
2021/12/08 06:13:03;;;;;;;1.98;0.60;;;12.10;99.90;;;;;;5007417;28;20030;-77
2021/12/08 06:15:29;;;;;;;1.58;0.70;;;12.00;99.90;;;;;;4994548;28;20053;-78
2021/12/08 06:17:55;;;;;;;1.33;0.60;;;12.00;99.90;;;;;;4989290;28;20045;-74
2021/12/08 06:20:23;;;;;;;2.58;0.80;;;12.10;99.90;;;;;;5010571;28;20037;-74
2021/12/08 06:22:53;;;;;;;1.08;0.50;;;12.40;99.90;;;;;;5001077;28;20045;-73
2021/12/08 06:25:22;;;;;;;1.30;0.43;;;12.50;99.90;;;;;;4978534;28;20048;-71
2021/12/08 06:27:49;;;;;;;1.67;0.95;;;12.40;99.90;;;;;;5015245;28;20042;-73
2021/12/08 06:30:20;;;;;;;1.35;0.65;;;12.40;99.90;;;;;;5006576;28;20050;-77
2021/12/08 06:32:48;;;;;;;1.52;0.60;;;12.30;99.90;;;;;;5012847;28;20048;-72
2021/12/08 06:35:24;;;;;;;0.95;0.50;;;12.20;99.90;;;;;;5003100;28;20038;-77
2021/12/08 06:37:50;;;;;;;2.50;0.80;;;12.10;99.90;;;;;;4979241;28;20473;-73
2021/12/08 06:40:22;;;;;;;4.38;0.80;;;12.10;99.90;;;;;;5010597;28;20056;-76
2021/12/08 06:42:53;;;;;;;2.88;0.80;;;12.00;99.90;;;;;;5005107;28;20070;-73
2021/12/08 06:45:23;;;;;;;2.25;0.60;;;11.90;99.90;;;;;;4997706;28;20045;-76
2021/12/08 06:47:51;;;;;;;1.92;0.70;;;12.00;99.90;;;;;;5008874;28;20481;-73
2021/12/08 06:50:25;;;;;;;4.00;1.00;;;11.90;99.90;;;;;;4984042;28;20137;-77
2021/12/08 06:52:52;;;;;;;3.65;0.70;;;12.00;99.90;;;;;;4998088;28;20177;-76
2021/12/08 06:55:28;;;;;;;2.30;0.80;;;11.90;99.90;;;;;;5009687;28;20133;-72
2021/12/08 06:58:17;;;;;;;1.85;0.73;;;11.80;99.90;;;;;;5000593;28;20048;-75
2021/12/08 07:04:25;;;;;;;2.88;0.63;;;11.60;99.90;;;;;;4975354;28;20070;-75
2021/12/08 07:07:08;;;;;;;2.58;0.75;;;11.50;99.90;;;;;;4974105;28;20099;-73
2021/12/08 07:09:48;;;;;;;2.03;0.68;;;11.40;99.90;;;;;;5018704;28;20034;-75
2021/12/08 07:12:23;;;;;;;1.67;0.68;;;11.40;99.90;;;;;;5001956;28;20107;-77
2021/12/08 07:14:57;;;;;;;2.30;0.70;;;11.40;99.90;;;;;;4998418;28;20154;-75
2021/12/08 07:17:29;;;;;;;1.30;0.80;;;11.40;99.90;;;;;;5006853;28;20042;-74
2021/12/08 07:22:53;;;;;;;4.65;0.70;;;11.40;99.90;;;;;;4986902;28;20097;-75
2021/12/08 07:25:25;;;;;;;2.40;0.93;;;11.40;99.90;;;;;;4983477;28;20466;-76
2021/12/08 07:27:52;;;;;;;5.85;1.00;;;11.30;99.90;;;;;;5009008;28;20045;-73
2021/12/08 07:30:26;;;;;;;2.63;0.80;;;11.30;99.90;;;;;;4987100;28;20039;-74
2021/12/08 07:32:55;;;;;;;3.42;0.80;;;11.40;99.90;;;;;;4991902;28;20041;-75
2021/12/08 07:35:32;;;;;;;4.25;0.60;;;11.40;99.90;;;;;;4985562;28;20034;-74
2021/12/08 07:37:58;;;;;;;1.38;0.55;;;11.40;99.90;;;;;;4981740;28;20038;-74
2021/12/08 07:40:40;;;;;;;2.28;0.70;;;11.30;99.90;;;;;;4985579;28;20022;-73
2021/12/08 07:43:15;;;;;;;1.85;0.60;;;11.40;99.80;;;;;;4961258;28;20062;-73
2021/12/08 07:46:02;;;;;;;2.85;0.93;;;11.40;99.90;;;;;;4994421;28;20030;-74
2021/12/08 07:48:35;;;;;;;4.07;0.80;;;11.40;99.80;;;;;;4994263;28;20061;-75
2021/12/08 07:51:10;;;;;;;4.20;0.88;;;11.40;99.60;;;;;;4973833;28;20105;-73
2021/12/08 07:53:36;;;;;;;2.15;0.77;;;11.30;99.80;;;;;;4996905;28;20068;-76
2021/12/08 07:56:08;;;;;;;6.03;1.20;;;11.40;99.50;;;;;;5001887;28;20049;-72
2021/12/08 07:58:38;;;;;;;2.00;0.68;;;11.50;99.50;;;;;;4993915;28;20436;-75
2021/12/08 08:01:19;;;;;;;2.65;0.90;;;11.50;99.40;;;;;;4978729;28;20046;-74
2021/12/08 08:03:47;;;;;;;2.55;0.60;;;11.50;99.40;;;;;;5014557;28;20042;-78
2021/12/08 08:06:18;;;;;;;2.25;0.80;;;11.50;99.10;;;;;;5000848;28;20057;-72
2021/12/08 08:08:45;;;;;;;1.80;1.00;;;11.60;99.20;;;;;;5002820;28;20432;-77
2021/12/08 08:11:18;;;;;;;4.28;0.88;;;11.90;98.80;;;;;;4998283;28;20108;-74
2021/12/08 08:13:44;;;;;;;5.72;0.98;;;11.70;99.00;;;;;;5010283;28;20042;-73
2021/12/08 08:16:16;;;;;;;4.25;3.38;;;11.80;98.80;;;;;;5013905;28;20513;-72
2021/12/08 08:18:53;;;;;;;3.47;1.98;;;13.20;97.50;;;;;;5005750;28;20131;-75
2021/12/08 08:21:22;;;;;;;2.47;1.50;;;13.90;95.90;;;;;;4996832;28;20417;-77
2021/12/08 08:23:49;;;;;;;5.22;1.10;;;14.50;95.10;;;;;;4985411;28;20046;-75
2021/12/08 08:26:16;;;;;;;2.20;1.00;;;15.00;94.60;;;;;;4998719;28;20033;-74
2021/12/08 08:28:47;;;;;;;3.30;0.98;;;14.40;94.80;;;;;;5008478;28;20061;-75
2021/12/08 08:31:51;;;;;;;3.50;1.23;;;14.20;94.80;;;;;;4999368;28;20053;-72
2021/12/08 08:34:18;;;;;;;3.47;1.27;;;14.40;95.10;;;;;;5004699;28;20451;-74
2021/12/08 08:36:47;;;;;;;4.75;1.10;;;14.30;94.80;;;;;;4978531;28;20068;-74
2021/12/08 08:39:21;;;;;;;1.73;1.10;;;14.60;94.50;;;;;;5005393;28;20401;-76
2021/12/08 08:42:13;;;;;;;2.67;1.13;;;14.30;94.50;;;;;;5005533;28;20046;-73
2021/12/08 08:45:14;;;;;;;5.38;1.00;;;14.40;94.50;;;;;;5010611;28;20405;-77
2021/12/08 08:47:46;;;;;;;2.92;0.68;;;13.60;95.00;;;;;;5008266;28;20042;-74
2021/12/08 08:50:24;;;;;;;3.30;0.75;;;13.00;95.50;;;;;;5008478;28;20074;-77
2021/12/08 08:52:54;;;;;;;5.53;0.90;;;12.60;96.00;;;;;;5011102;28;20108;-76
2021/12/08 08:55:46;;;;;;;1.95;0.82;;;12.60;96.10;;;;;;5018979;28;20100;-73
2021/12/08 08:58:13;;;;;;;4.60;0.83;;;12.40;96.30;;;;;;5012756;28;20046;-74
2021/12/08 09:00:45;;;;;;;5.47;0.70;;;12.30;96.50;;;;;;5012198;28;20260;-75
2021/12/08 09:03:17;;;;;;;4.47;0.80;;;12.60;96.00;;;;;;5009946;28;20038;-77
2021/12/08 09:05:51;;;;;;;1.70;0.60;;;12.50;96.40;;;;;;5007813;28;20041;-76
2021/12/08 09:08:18;;;;;;;3.20;0.80;;;12.40;96.50;;;;;;5003098;28;20080;-74
2021/12/08 09:10:54;;;;;;;4.10;0.70;;;12.50;96.50;;;;;;4977665;28;20530;-77
2021/12/08 09:13:31;;;;;;;2.58;0.77;;;12.50;96.60;;;;;;4998595;28;20041;-74
2021/12/08 09:16:09;;;;;;;3.17;0.60;;;12.40;96.40;;;;;;5006634;28;20115;-74
2021/12/08 09:18:54;;;;;;;4.15;0.80;;;12.60;96.40;;;;;;4979386;28;20699;-74
2021/12/08 09:21:59;;;;;;;6.28;0.77;;;13.00;96.20;;;;;;5003189;28;20072;-75
2021/12/08 09:24:51;;;;;;;3.60;0.63;;;13.40;95.80;;;;;;4962211;28;20042;-76
2021/12/08 09:27:23;;;;;;;1.77;0.80;;;13.40;95.50;;;;;;4999802;28;20406;-78
2021/12/08 09:29:58;;;;;;;5.40;0.80;;;13.50;95.50;;;;;;4994626;28;20049;-76
2021/12/08 09:32:35;;;;;;;3.85;0.80;;;13.70;95.60;;;;;;5006515;28;20038;-74
2021/12/08 09:35:10;;;;;;;1.05;0.45;;;13.50;95.50;;;;;;5012455;28;20037;-77
2021/12/08 09:37:44;;;;;;;1.50;0.47;;;13.70;95.50;;;;;;4960109;28;20409;-75
2021/12/08 09:40:32;;;;;;;1.75;0.63;;;13.40;95.50;;;;;;4987213;28;20033;-74
2021/12/08 09:43:02;;;;;;;1.80;0.70;;;13.60;95.40;;;;;;5007512;28;20034;-74
2021/12/08 09:45:37;;;;;;;1.48;0.52;;;13.60;95.20;;;;;;4976682;28;20033;-74
2021/12/08 09:48:06;;;;;;;2.42;0.68;;;13.90;94.80;;;;;;4997190;28;20068;-73
2021/12/08 09:50:34;;;;;;;2.63;0.60;;;13.80;94.70;;;;;;4988598;28;20051;-75
2021/12/08 09:53:01;;;;;;;2.10;0.50;;;13.90;94.70;;;;;;4979985;28;20089;-75
2021/12/08 09:55:28;;;;;;;0.88;0.40;;;14.00;94.70;;;;;;4994310;28;20050;-77
2021/12/08 09:57:54;;;;;;;0.90;0.68;;;13.60;94.80;;;;;;4983232;28;20125;-74
2021/12/08 10:00:33;;;;;;;2.22;0.50;;;13.90;94.80;;;;;;5011248;28;20438;-74
2021/12/08 10:03:00;;;;;;;1.15;0.50;;;14.00;94.80;;;;;;5010305;28;20042;-76
2021/12/08 10:05:32;;;;;;;2.60;0.68;;;14.00;94.70;;;;;;4996720;28;20034;-73
2021/12/08 10:07:59;;;;;;;0.75;0.47;;;13.90;94.70;;;;;;4988353;28;20041;-76
2021/12/08 10:10:29;;;;;;;1.75;0.45;;;14.00;94.80;;;;;;4987627;28;20438;-74
2021/12/08 10:12:55;;;;;;;0.80;0.40;;;14.00;94.50;;;;;;4991658;28;20038;-75
2021/12/08 10:15:23;;;;;;;2.25;0.50;;;14.00;94.40;;;;;;4981748;28;20041;-75
2021/12/08 10:17:51;;;;;;;3.65;0.60;;;14.30;94.40;;;;;;5003740;28;20534;-77
2021/12/08 10:20:21;;;;;;;1.95;0.40;;;14.30;93.80;;;;;;4989322;28;20031;-75
2021/12/08 10:23:32;;;;;;;2.03;0.38;;;14.20;93.60;;;;;;4988638;28;20062;-77
2021/12/08 10:26:02;;;;;;;0.57;0.40;;;14.10;93.60;;;;;;4989800;28;20034;-77
2021/12/08 10:28:31;;;;;;;1.50;0.55;;;14.10;93.40;;;;;;4982745;28;20084;-76
2021/12/08 10:31:17;;;;;;;1.65;0.52;;;14.60;93.60;;;;;;4970782;28;20073;-73
2021/12/08 10:39:19;;;;;;;1.95;0.40;;;14.40;93.50;;;;;;4998747;28;20072;-74
2021/12/08 10:42:19;;;;;;;1.17;0.50;;;14.70;93.30;;;;;;5010058;28;20084;-74
2021/12/08 10:45:08;;;;;;;0.60;0.30;;;14.90;93.00;;;;;;5006316;28;20038;-74
2021/12/08 10:48:01;;;;;;;2.35;0.52;;;15.10;92.80;;;;;;5001693;28;20543;-74
2021/12/08 10:56:11;;;;;;;0.40;0.40;;;15.60;92.60;;;;;;5003283;28;20178;-75
2021/12/08 10:58:40;;;;;;;0.67;0.30;;;14.90;92.70;;;;;;5005958;28;20033;-75
2021/12/08 11:01:19;;;;;;;1.02;0.50;;;15.30;92.40;;;;;;5002015;28;20043;-73
2021/12/08 11:03:48;;;;;;;1.30;0.50;;;15.00;92.30;;;;;;5010554;28;20077;-76
2021/12/08 11:06:16;;;;;;;1.45;0.50;;;15.20;92.40;;;;;;5006975;28;20053;-74
2021/12/08 11:08:45;;;;;;;1.05;0.60;;;15.60;92.40;;;;;;5005366;28;26448;-74
2021/12/08 11:11:14;;;;;;;2.03;0.60;;;15.60;92.60;;;;;;5003808;28;20045;-74
2021/12/08 11:13:47;;;;;;;0.95;0.60;;;15.20;92.40;;;;;;5001879;28;20191;-73
2021/12/08 11:16:23;;;;;;;1.75;1.10;;;14.80;92.10;;;;;;5009432;28;20056;-74
2021/12/08 11:19:05;;;;;;;1.42;0.60;;;15.60;92.40;;;;;;5012742;28;20044;-74
2021/12/08 11:21:38;;;;;;;1.60;0.90;;;15.20;92.10;;;;;;5001173;28;20440;-74
2021/12/08 11:24:11;;;;;;;1.52;0.70;;;15.80;92.00;;;;;;4983634;28;20139;-75
2021/12/08 11:26:43;;;;;;;0.63;0.40;;;15.50;91.30;;;;;;5005474;28;20054;-75
2021/12/08 11:29:12;;;;;;;3.30;0.60;;;15.30;90.80;;;;;;5013900;28;20087;-75
2021/12/08 11:31:51;;;;;;;2.28;0.70;;;15.60;91.10;;;;;;5012747;28;20038;-75
2021/12/08 11:34:36;;;;;;;2.92;0.40;;;15.60;90.70;;;;;;5013333;28;20041;-74
2021/12/08 11:37:07;;;;;;;1.38;0.47;;;15.50;90.80;;;;;;5007151;28;20088;-74
2021/12/08 11:39:37;;;;;;;2.70;0.52;;;15.60;90.80;;;;;;5009663;28;20118;-75
2021/12/08 11:42:17;;;;;;;1.48;0.70;;;15.00;90.00;;;;;;5003019;28;20045;-74
2021/12/08 11:44:46;;;;;;;1.08;0.50;;;15.20;90.50;;;;;;5005825;28;20041;-75
2021/12/08 11:47:22;;;;;;;0.73;0.57;;;16.00;90.40;;;;;;5014250;28;20500;-75
2021/12/08 11:49:57;;;;;;;1.33;0.60;;;16.00;90.40;;;;;;5013589;28;20042;-74
2021/12/08 11:52:29;;;;;;;1.63;0.80;;;15.90;90.60;;;;;;5009985;28;20362;-74
2021/12/08 11:55:00;;;;;;;2.70;0.70;;;15.90;90.50;;;;;;5006482;28;20061;-73
2021/12/08 11:57:37;;;;;;;1.27;0.60;;;15.80;90.80;;;;;;5006921;28;20034;-74
2021/12/08 12:00:22;;;;;;;0.95;0.45;;;16.10;90.70;;;;;;4984107;28;20048;-74
2021/12/08 12:03:10;;;;;;;3.03;0.68;;;16.30;88.90;;;;;;5009913;28;20041;-74
2021/12/08 12:05:46;;;;;;;0.50;0.40;;;15.90;89.10;;;;;;4979301;28;20037;-75
2021/12/08 12:08:19;;;;;;;2.97;0.75;;;16.20;88.90;;;;;;5009115;28;20045;-73
2021/12/08 12:10:49;;;;;;;1.95;0.60;;;16.60;88.70;;;;;;5010952;28;20049;-74
2021/12/08 12:13:15;;;;;;;2.90;0.98;;;16.20;88.80;;;;;;5002722;28;20137;-75
2021/12/08 12:15:47;;;;;;;0.77;0.50;;;16.40;88.20;;;;;;4999996;28;20120;-75
2021/12/08 12:18:19;;;;;;;0.57;0.40;;;16.00;87.60;;;;;;5007756;28;20033;-74
2021/12/08 12:21:07;;;;;;;3.28;1.05;;;16.80;86.50;;;;;;5013432;28;20124;-75
2021/12/08 12:23:45;;;;;;;2.58;0.60;;;16.40;85.40;;;;;;5003827;28;20677;-74
2021/12/08 12:26:39;;;;;;;2.10;0.73;;;16.20;85.40;;;;;;4995765;28;20053;-75
2021/12/08 12:29:35;;;;;;;2.03;0.60;;;15.80;86.40;;;;;;5007791;28;20129;-74
2021/12/08 12:32:12;;;;;;;1.42;0.90;;;16.20;84.50;;;;;;5004817;28;20142;-74
2021/12/08 12:34:39;;;;;;;1.92;0.73;;;16.90;84.60;;;;;;4975499;28;20030;-74
2021/12/08 12:37:18;;;;;;;1.50;0.75;;;16.30;84.00;;;;;;5010331;28;20120;-75
2021/12/08 12:39:51;;;;;;;1.35;0.60;;;16.80;84.30;;;;;;5006346;28;20037;-74
2021/12/08 12:42:18;;;;;;;1.35;0.80;;;16.10;85.10;;;;;;5013216;28;20049;-74
2021/12/08 12:45:07;;;;;;;3.05;0.65;;;16.80;83.40;;;;;;5011800;28;20034;-75
2021/12/08 12:47:34;;;;;;;1.67;0.50;;;16.20;83.30;;;;;;5009251;28;20034;-76
2021/12/08 12:50:00;;;;;;;0.55;0.50;;;15.90;82.90;;;;;;5006141;28;20046;-73
2021/12/08 12:52:53;;;;;;;2.50;0.60;;;16.00;83.80;;;;;;5006839;28;20040;-74
2021/12/08 12:55:23;;;;;;;2.33;0.60;;;16.00;83.60;;;;;;4998215;28;20045;-74
2021/12/08 12:58:05;;;;;;;2.35;0.80;;;15.90;82.90;;;;;;5010394;28;20038;-74
2021/12/08 13:00:40;;;;;;;2.35;1.27;;;15.60;83.10;;;;;;5009431;28;20038;-74
2021/12/08 13:03:07;;;;;;;5.78;1.33;;;15.90;83.60;;;;;;4998812;28;20166;-75
2021/12/08 13:05:55;;;;;;;1.83;0.70;;;16.80;82.10;;;;;;4998941;28;20065;-74
2021/12/08 13:08:57;;;;;;;3.55;0.98;;;17.60;81.70;;;;;;4979949;28;20366;-74
2021/12/08 13:11:30;;;;;;;1.60;0.70;;;16.90;82.10;;;;;;4943939;28;20050;-77
2021/12/08 13:13:58;;;;;;;2.50;0.70;;;17.20;82.20;;;;;;4986469;28;20401;-74
2021/12/08 13:16:31;;;;;;;2.35;1.52;;;16.40;82.60;;;;;;4977594;28;20108;-77
2021/12/08 13:19:00;;;;;;;9.45;2.70;;;16.20;83.40;;;;;;5011576;28;20124;-76
2021/12/08 13:21:41;;;;;;;12.35;6.80;;;16.70;83.10;;;;;;4972298;28;20456;-75
2021/12/08 13:24:37;;;;;;;5.30;2.00;;;16.30;83.10;;;;;;4991385;28;20168;-75
2021/12/08 13:27:10;;;;;;;4.97;1.40;;;16.20;83.30;;;;;;4983154;28;20054;-74
2021/12/08 13:29:41;;;;;;;5.57;3.63;;;16.60;83.10;;;;;;4985292;28;20084;-74
2021/12/08 13:32:11;;;;;;;5.07;2.15;;;16.40;82.40;;;;;;4992800;28;20120;-75
2021/12/08 13:35:03;;;;;;;1.27;0.52;;;16.70;82.40;;;;;;5003456;28;20065;-75
2021/12/08 13:37:30;;;;;;;2.50;1.00;;;16.00;81.50;;;;;;5006788;28;20346;-73
2021/12/08 13:40:10;;;;;;;3.50;1.10;;;16.40;82.80;;;;;;4987472;28;20120;-75
2021/12/08 13:42:56;;;;;;;0.93;0.45;;;16.90;82.00;;;;;;4990098;28;20092;-74
2021/12/08 13:45:23;;;;;;;2.17;0.40;;;16.00;83.00;;;;;;5001148;28;20044;-74
2021/12/08 13:48:02;;;;;;;0.80;0.50;;;16.40;82.50;;;;;;5002492;28;20053;-74
2021/12/08 13:50:34;;;;;;;1.25;0.52;;;16.70;81.70;;;;;;4970710;28;20046;-74
2021/12/08 13:53:13;;;;;;;2.10;0.68;;;16.30;82.70;;;;;;4989088;28;20037;-75
2021/12/08 13:55:59;;;;;;;1.92;1.33;;;16.50;82.80;;;;;;4993333;28;20057;-74
2021/12/08 13:58:37;;;;;;;3.25;0.90;;;17.10;81.70;;;;;;4989161;28;20056;-74
2021/12/08 14:01:05;;;;;;;2.20;1.55;;;17.20;81.10;;;;;;4992002;28;20034;-74
2021/12/08 14:03:44;;;;;;;1.63;0.60;;;17.10;80.30;;;;;;4989917;28;20038;-73
2021/12/08 14:06:11;;;;;;;8.48;4.13;;;16.40;80.70;;;;;;4991375;28;20038;-73
2021/12/08 14:08:44;;;;;;;4.25;1.00;;;16.70;81.70;;;;;;4987672;28;20069;-75
2021/12/08 14:11:19;;;;;;;2.03;1.20;;;17.20;80.90;;;;;;4989031;28;20437;-73
2021/12/08 14:13:49;;;;;;;1.35;0.98;;;18.50;80.20;;;;;;4993237;28;23458;-74
2021/12/08 14:16:25;;;;;;;2.92;1.15;;;19.70;78.40;;;;;;4991905;28;20116;-74
2021/12/08 14:18:54;;;;;;;5.78;0.95;;;17.50;79.00;;;;;;4997092;28;20108;-75
2021/12/08 14:21:31;;;;;;;4.50;2.92;;;17.00;80.80;;;;;;4997521;28;20622;-74
2021/12/08 14:24:10;;;;;;;3.58;1.40;;;17.50;79.40;;;;;;4992866;28;20585;-75